Time;durP1;ratioP1;P1;durP2;ratioP2;P2;SDS_P1;SDS_P2;PMS_P1;PMS_P2;Temp;Humidity;BMP_temperature;BMP_pressure;BME280_temperature;BME280_humidity;BME280_pressure;Samples;Min_cycle;Max_cycle;Signal;HPM_P1;HPM_P2
2021/07/19 00:00:11;;;;;;;6.32;5.72;;;21.60;99.90;;;;;;5041391;28;22414;-73
2021/07/19 00:02:38;;;;;;;8.77;5.68;;;21.60;99.90;;;;;;5046330;28;20017;-73
2021/07/19 00:05:05;;;;;;;8.90;6.85;;;21.60;99.90;;;;;;5046216;28;20095;-72
2021/07/19 00:07:30;;;;;;;8.07;6.38;;;21.50;99.90;;;;;;5045059;28;20021;-73
2021/07/19 00:09:56;;;;;;;9.02;5.78;;;21.50;99.90;;;;;;5049247;28;20028;-72
2021/07/19 00:12:22;;;;;;;7.53;5.75;;;21.50;99.90;;;;;;5046453;28;20032;-73
2021/07/19 00:14:57;;;;;;;10.05;5.72;;;21.40;99.90;;;;;;5051900;28;20021;-72
2021/07/19 00:17:22;;;;;;;6.22;5.63;;;21.40;99.90;;;;;;5049133;28;20075;-73
2021/07/19 00:19:50;;;;;;;10.85;6.45;;;21.40;99.90;;;;;;5047696;28;20028;-73
2021/07/19 00:22:20;;;;;;;8.73;6.25;;;21.40;99.90;;;;;;5045814;28;20157;-73
2021/07/19 00:24:47;;;;;;;10.10;6.43;;;21.30;99.90;;;;;;5051882;28;20037;-73
2021/07/19 00:27:13;;;;;;;9.77;6.40;;;21.30;99.90;;;;;;5049437;28;20089;-73
2021/07/19 00:29:39;;;;;;;8.80;6.20;;;21.30;99.90;;;;;;5049058;28;20111;-73
2021/07/19 00:32:06;;;;;;;7.20;6.22;;;21.20;99.90;;;;;;5045054;28;20164;-72
2021/07/19 00:34:32;;;;;;;7.80;7.00;;;21.10;99.90;;;;;;5037596;28;20033;-74
2021/07/19 00:36:58;;;;;;;7.00;6.20;;;21.10;99.90;;;;;;5048931;28;20032;-72
2021/07/19 00:39:24;;;;;;;8.90;5.97;;;21.00;99.90;;;;;;5043408;28;20044;-72
2021/07/19 00:41:51;;;;;;;10.27;7.03;;;21.00;99.90;;;;;;5050123;28;20024;-72
2021/07/19 00:44:20;;;;;;;10.23;6.40;;;21.00;99.90;;;;;;5042111;28;20033;-72
2021/07/19 00:46:51;;;;;;;9.10;6.50;;;21.00;99.90;;;;;;5050664;28;20076;-72
2021/07/19 00:49:19;;;;;;;8.65;6.57;;;21.00;99.90;;;;;;5051084;28;20045;-72
2021/07/19 00:51:45;;;;;;;11.15;6.28;;;21.00;99.90;;;;;;5046527;28;20029;-72
2021/07/19 00:54:17;;;;;;;11.60;5.75;;;20.90;99.90;;;;;;5055664;28;20024;-72
2021/07/19 00:56:47;;;;;;;9.27;6.40;;;20.90;99.90;;;;;;5045169;28;20014;-72
2021/07/19 00:59:15;;;;;;;9.20;7.10;;;20.90;99.90;;;;;;5055648;28;20106;-72
2021/07/19 01:01:45;;;;;;;6.75;6.07;;;20.90;99.90;;;;;;5052117;28;20021;-72
2021/07/19 01:04:13;;;;;;;9.90;6.40;;;20.90;99.90;;;;;;5054891;28;20032;-73
2021/07/19 01:06:43;;;;;;;8.80;6.18;;;20.80;99.90;;;;;;5049400;28;20047;-72
2021/07/19 01:09:09;;;;;;;9.75;6.57;;;20.80;99.90;;;;;;5047977;28;20029;-72
2021/07/19 01:11:34;;;;;;;10.13;6.57;;;20.80;99.90;;;;;;5044873;28;20425;-72
2021/07/19 01:14:00;;;;;;;11.65;6.47;;;20.70;99.90;;;;;;5048499;28;20039;-72
2021/07/19 01:16:27;;;;;;;7.85;5.88;;;20.60;99.90;;;;;;5047959;28;20074;-72
2021/07/19 01:18:53;;;;;;;11.88;7.05;;;20.70;99.90;;;;;;5049700;28;20025;-72
2021/07/19 01:21:45;;;;;;;10.80;7.05;;;20.60;99.90;;;;;;5051513;28;20023;-72
2021/07/19 01:24:45;;;;;;;9.07;6.28;;;20.60;99.90;;;;;;5052287;28;20514;-72
2021/07/19 01:27:17;;;;;;;12.18;7.18;;;20.60;99.90;;;;;;5044853;28;20037;-73
2021/07/19 01:29:43;;;;;;;10.32;7.00;;;20.60;99.90;;;;;;5047221;28;20020;-72
2021/07/19 01:32:09;;;;;;;10.48;6.70;;;20.50;99.90;;;;;;5043496;28;20026;-72
2021/07/19 01:34:38;;;;;;;12.00;6.93;;;20.50;99.90;;;;;;5044700;28;20022;-73
2021/07/19 01:37:06;;;;;;;8.50;6.25;;;20.50;99.90;;;;;;5043678;28;20481;-72
2021/07/19 01:39:34;;;;;;;9.27;5.97;;;20.50;99.90;;;;;;5048239;28;20461;-73
2021/07/19 01:42:01;;;;;;;7.18;6.18;;;20.40;99.90;;;;;;5049741;28;20016;-72
2021/07/19 01:44:28;;;;;;;10.55;6.85;;;20.40;99.90;;;;;;5047682;28;20060;-73
2021/07/19 01:46:57;;;;;;;7.80;6.88;;;20.40;99.90;;;;;;5052141;28;20012;-72
2021/07/19 01:49:24;;;;;;;9.00;6.68;;;20.40;99.90;;;;;;5050420;28;20079;-72
2021/07/19 01:51:51;;;;;;;10.13;6.97;;;20.30;99.90;;;;;;5050519;28;20025;-73
2021/07/19 01:54:18;;;;;;;9.43;6.45;;;20.30;99.90;;;;;;5051817;28;20021;-73
2021/07/19 01:56:45;;;;;;;9.30;6.43;;;20.30;99.90;;;;;;5055224;28;20025;-73
2021/07/19 01:59:12;;;;;;;12.88;7.10;;;20.30;99.90;;;;;;5053088;28;20059;-73
2021/07/19 02:01:39;;;;;;;7.95;7.18;;;20.20;99.90;;;;;;5051135;28;20100;-72
2021/07/19 02:04:05;;;;;;;9.57;6.03;;;20.20;99.90;;;;;;5049420;28;20064;-72
2021/07/19 02:06:32;;;;;;;9.88;6.72;;;20.20;99.90;;;;;;5050703;28;20070;-73
2021/07/19 02:09:03;;;;;;;10.82;7.60;;;20.10;99.90;;;;;;5046830;28;20017;-73
2021/07/19 02:11:30;;;;;;;9.80;7.23;;;20.10;99.90;;;;;;5047845;28;20013;-73
2021/07/19 02:13:58;;;;;;;9.38;6.80;;;20.10;99.90;;;;;;5045599;28;20033;-73
2021/07/19 02:16:27;;;;;;;7.75;6.90;;;20.00;99.90;;;;;;5047627;28;20124;-72
2021/07/19 02:18:54;;;;;;;7.85;6.95;;;20.00;99.90;;;;;;5047808;28;20017;-72
2021/07/19 02:21:23;;;;;;;8.75;7.05;;;20.00;99.90;;;;;;5050408;28;20028;-73
2021/07/19 02:23:50;;;;;;;12.82;7.88;;;20.00;99.90;;;;;;5043544;28;20389;-73
2021/07/19 02:26:17;;;;;;;9.40;7.50;;;20.00;99.90;;;;;;5050050;28;20107;-73
2021/07/19 02:28:43;;;;;;;9.60;7.13;;;20.00;99.90;;;;;;5049078;28;20464;-73
2021/07/19 02:31:09;;;;;;;11.65;7.57;;;20.00;99.90;;;;;;5049165;28;20024;-72
2021/07/19 02:33:37;;;;;;;10.50;7.18;;;19.90;99.90;;;;;;5044317;28;20040;-73
2021/07/19 02:36:05;;;;;;;10.07;7.55;;;19.90;99.90;;;;;;5043339;28;20100;-73
2021/07/19 02:38:32;;;;;;;12.13;7.90;;;19.90;99.90;;;;;;5045743;28;20028;-73
2021/07/19 02:40:59;;;;;;;9.75;7.30;;;19.90;99.90;;;;;;5052123;28;20012;-73
2021/07/19 02:43:26;;;;;;;11.27;7.43;;;19.90;99.90;;;;;;5037261;28;20431;-73
2021/07/19 02:45:54;;;;;;;9.85;8.07;;;19.90;99.90;;;;;;5044203;28;20025;-72
2021/07/19 02:48:21;;;;;;;8.32;7.00;;;19.90;99.90;;;;;;5043083;28;20021;-72
2021/07/19 02:50:50;;;;;;;9.85;7.68;;;19.80;99.90;;;;;;5049307;28;20033;-72
2021/07/19 02:53:18;;;;;;;10.45;7.90;;;19.80;99.90;;;;;;5050816;28;20020;-72
2021/07/19 02:55:46;;;;;;;11.00;7.88;;;19.80;99.90;;;;;;5046049;28;20497;-72
2021/07/19 02:58:17;;;;;;;15.63;8.65;;;19.80;99.90;;;;;;5049900;28;20032;-72
2021/07/19 03:00:44;;;;;;;12.82;7.97;;;19.70;99.90;;;;;;5042987;28;20025;-72
2021/07/19 03:03:18;;;;;;;9.05;8.15;;;19.70;99.90;;;;;;5043145;28;20477;-72
2021/07/19 03:05:49;;;;;;;10.02;8.25;;;19.70;99.90;;;;;;5038190;28;20422;-72
2021/07/19 03:08:15;;;;;;;11.15;8.05;;;19.60;99.90;;;;;;5048246;28;20029;-72
2021/07/19 03:10:44;;;;;;;11.93;7.85;;;19.60;99.90;;;;;;5049197;28;20016;-72
2021/07/19 03:13:14;;;;;;;16.52;8.05;;;19.60;99.90;;;;;;5050373;28;20056;-72
2021/07/19 03:15:43;;;;;;;13.43;8.18;;;19.50;99.90;;;;;;5043529;28;20021;-72
2021/07/19 03:18:10;;;;;;;11.70;8.57;;;19.50;99.90;;;;;;5051003;28;20389;-72
2021/07/19 03:20:39;;;;;;;11.65;8.57;;;19.50;99.90;;;;;;5049843;28;20021;-72
2021/07/19 03:23:10;;;;;;;12.95;8.48;;;19.50;99.90;;;;;;5052429;28;20090;-72
2021/07/19 03:25:36;;;;;;;14.18;8.65;;;19.50;99.90;;;;;;5048561;28;20020;-73
2021/07/19 03:28:02;;;;;;;14.57;8.45;;;19.50;99.90;;;;;;5042371;28;20029;-72
2021/07/19 03:30:28;;;;;;;10.55;8.27;;;19.50;99.90;;;;;;5048088;28;20044;-72
2021/07/19 03:32:55;;;;;;;11.95;8.35;;;19.40;99.90;;;;;;5051608;28;20470;-72
2021/07/19 03:35:25;;;;;;;10.18;8.35;;;19.40;99.90;;;;;;5046747;28;20013;-72
2021/07/19 03:37:51;;;;;;;13.60;8.38;;;19.40;99.90;;;;;;5046343;28;20026;-72
2021/07/19 03:40:21;;;;;;;11.95;8.38;;;19.30;99.90;;;;;;5055171;28;20066;-72
2021/07/19 03:42:49;;;;;;;11.77;8.80;;;19.30;99.90;;;;;;5038976;28;20072;-73
2021/07/19 03:45:15;;;;;;;14.55;8.65;;;19.20;99.90;;;;;;5049122;28;20096;-73
2021/07/19 03:47:42;;;;;;;12.02;7.88;;;19.20;99.90;;;;;;5044938;28;20024;-72
2021/07/19 03:50:10;;;;;;;10.90;7.68;;;19.10;99.90;;;;;;5048170;28;20025;-72
2021/07/19 03:52:39;;;;;;;10.82;7.40;;;19.10;99.90;;;;;;5043723;28;20290;-72
2021/07/19 03:55:07;;;;;;;10.10;7.50;;;19.10;99.90;;;;;;5047178;28;20059;-73
2021/07/19 03:57:38;;;;;;;10.55;7.95;;;19.10;99.90;;;;;;5053263;28;20017;-72
2021/07/19 04:00:10;;;;;;;9.20;7.57;;;19.10;99.90;;;;;;5051753;28;20041;-72
2021/07/19 04:02:37;;;;;;;12.77;8.73;;;19.10;99.90;;;;;;5048147;28;20048;-72
2021/07/19 04:05:06;;;;;;;10.98;7.40;;;19.00;99.90;;;;;;5051522;28;20107;-72
2021/07/19 04:07:39;;;;;;;10.50;7.60;;;19.10;99.90;;;;;;5052527;28;20028;-73
2021/07/19 04:10:12;;;;;;;11.30;7.43;;;19.00;99.90;;;;;;5059994;28;20100;-73
2021/07/19 04:12:46;;;;;;;11.40;8.32;;;19.00;99.90;;;;;;5062236;28;20020;-72
2021/07/19 04:15:13;;;;;;;10.38;8.05;;;19.00;99.90;;;;;;5060051;28;20381;-73
2021/07/19 04:17:39;;;;;;;10.82;8.40;;;19.00;99.90;;;;;;5054161;28;20108;-72
2021/07/19 04:20:07;;;;;;;13.07;8.45;;;19.00;99.90;;;;;;5057952;28;20532;-73
2021/07/19 04:22:34;;;;;;;13.40;8.93;;;19.00;99.90;;;;;;5059183;28;20028;-72
2021/07/19 04:25:07;;;;;;;15.07;9.02;;;19.00;99.90;;;;;;5065654;28;20057;-72
2021/07/19 04:27:36;;;;;;;11.05;8.85;;;19.00;99.90;;;;;;5041158;28;20017;-72
2021/07/19 04:30:04;;;;;;;12.07;8.95;;;18.90;99.90;;;;;;5057694;28;20025;-73
2021/07/19 04:32:30;;;;;;;10.48;8.13;;;18.90;99.90;;;;;;5053534;28;20070;-72
2021/07/19 04:34:56;;;;;;;12.55;8.45;;;18.80;99.90;;;;;;5059995;28;20029;-73
2021/07/19 04:37:22;;;;;;;12.07;9.10;;;18.80;99.90;;;;;;5060689;28;20033;-72
2021/07/19 04:39:49;;;;;;;11.68;8.35;;;18.90;99.90;;;;;;5054691;28;20092;-72
2021/07/19 04:42:15;;;;;;;14.18;8.75;;;18.90;99.90;;;;;;5055627;28;20074;-72
2021/07/19 04:44:41;;;;;;;12.82;9.05;;;18.90;99.90;;;;;;5050965;28;20441;-72
2021/07/19 04:47:07;;;;;;;11.90;9.60;;;18.90;99.90;;;;;;5058132;28;20035;-73
2021/07/19 04:49:37;;;;;;;13.85;8.75;;;19.00;99.90;;;;;;5066338;28;20495;-72
2021/07/19 04:52:03;;;;;;;12.43;9.40;;;18.90;99.90;;;;;;5049338;28;20078;-72
2021/07/19 04:54:37;;;;;;;13.95;8.93;;;18.90;99.90;;;;;;5048074;28;20025;-73
2021/07/19 04:57:04;;;;;;;16.13;9.27;;;18.90;99.90;;;;;;5059047;28;20095;-73
2021/07/19 04:59:35;;;;;;;11.63;8.77;;;19.00;99.90;;;;;;5053874;28;20029;-73
2021/07/19 05:02:02;;;;;;;15.75;9.05;;;19.00;99.90;;;;;;5042800;28;20450;-72
2021/07/19 05:04:28;;;;;;;15.25;10.00;;;19.00;99.90;;;;;;5056858;28;20435;-73
2021/07/19 05:06:56;;;;;;;13.82;9.80;;;19.00;99.90;;;;;;5059089;28;20044;-72
2021/07/19 05:09:23;;;;;;;12.65;10.45;;;19.00;99.90;;;;;;5060419;28;20032;-72
2021/07/19 05:11:51;;;;;;;14.90;10.10;;;19.00;99.90;;;;;;5052153;28;20086;-72
2021/07/19 05:14:17;;;;;;;17.95;9.05;;;19.00;99.90;;;;;;5056055;28;20025;-73
2021/07/19 05:16:44;;;;;;;15.95;11.35;;;19.10;99.90;;;;;;5053513;28;20025;-72
2021/07/19 05:19:12;;;;;;;16.63;10.98;;;19.00;99.90;;;;;;5054251;28;20106;-72
2021/07/19 05:21:38;;;;;;;14.75;10.02;;;19.00;99.90;;;;;;5049513;28;20389;-72
2021/07/19 05:24:05;;;;;;;12.70;10.13;;;19.10;99.90;;;;;;5059940;28;20071;-72
2021/07/19 05:26:32;;;;;;;17.02;11.75;;;19.10;99.90;;;;;;5048293;28;21364;-73
2021/07/19 05:28:57;;;;;;;21.00;11.43;;;19.10;99.90;;;;;;5057069;28;20025;-73
2021/07/19 05:31:24;;;;;;;24.52;11.25;;;19.10;99.90;;;;;;5055770;28;20039;-72
2021/07/19 05:33:50;;;;;;;18.50;11.60;;;19.10;99.90;;;;;;5052815;28;20468;-72
2021/07/19 05:36:15;;;;;;;13.73;10.18;;;19.10;99.90;;;;;;5058873;28;20088;-72
2021/07/19 05:38:41;;;;;;;17.58;11.93;;;19.20;99.90;;;;;;5061728;28;20034;-72
2021/07/19 05:41:11;;;;;;;16.20;11.88;;;19.10;99.90;;;;;;5060435;28;20053;-72
2021/07/19 05:43:37;;;;;;;18.17;11.55;;;19.10;99.90;;;;;;5060193;28;20045;-72
2021/07/19 05:46:03;;;;;;;21.25;13.25;;;19.10;99.90;;;;;;5056810;28;20021;-73
2021/07/19 05:48:29;;;;;;;21.02;13.70;;;19.20;99.90;;;;;;5060012;28;20485;-74
2021/07/19 05:50:56;;;;;;;19.23;12.40;;;19.20;99.90;;;;;;5053035;28;20025;-72
2021/07/19 05:53:22;;;;;;;21.25;13.82;;;19.20;99.90;;;;;;5066020;28;20033;-72
2021/07/19 05:55:49;;;;;;;17.48;13.73;;;19.20;99.90;;;;;;5055268;28;20047;-73
2021/07/19 05:58:16;;;;;;;18.52;13.98;;;19.30;99.90;;;;;;5057174;28;20017;-73
2021/07/19 06:00:42;;;;;;;17.80;13.02;;;19.40;99.90;;;;;;5059664;28;20481;-73
2021/07/19 06:03:09;;;;;;;19.60;13.85;;;19.40;99.90;;;;;;5046316;28;20993;-73
2021/07/19 06:05:36;;;;;;;21.80;13.40;;;19.30;99.90;;;;;;5044080;28;20024;-73
2021/07/19 06:08:02;;;;;;;21.27;13.43;;;19.30;99.90;;;;;;5052462;28;20027;-73
2021/07/19 06:10:28;;;;;;;17.95;13.45;;;19.30;99.90;;;;;;5068162;28;20013;-73
2021/07/19 06:12:54;;;;;;;21.40;12.93;;;19.30;99.90;;;;;;5045857;28;20025;-72
2021/07/19 06:15:20;;;;;;;21.42;13.70;;;19.30;99.90;;;;;;5047560;28;20388;-73
2021/07/19 06:17:46;;;;;;;22.05;14.18;;;19.30;99.90;;;;;;5050597;28;20017;-73
2021/07/19 06:20:16;;;;;;;16.52;11.65;;;19.40;99.90;;;;;;5048325;28;21259;-73
2021/07/19 06:22:42;;;;;;;19.48;13.27;;;19.40;99.90;;;;;;5045811;28;20052;-73
2021/07/19 06:25:10;;;;;;;19.20;13.15;;;19.40;99.90;;;;;;5048906;28;20028;-73
2021/07/19 06:27:36;;;;;;;20.27;14.15;;;19.40;99.90;;;;;;5047295;28;20029;-73
2021/07/19 06:30:07;;;;;;;19.75;13.30;;;19.40;99.90;;;;;;5054412;28;20025;-74
2021/07/19 06:32:32;;;;;;;19.60;13.07;;;19.40;99.90;;;;;;5043422;28;20017;-72
2021/07/19 06:34:58;;;;;;;16.83;11.50;;;19.40;99.90;;;;;;5051458;28;20075;-73
2021/07/19 06:37:24;;;;;;;19.42;12.35;;;19.40;99.90;;;;;;5050962;28;20021;-74
2021/07/19 06:39:50;;;;;;;15.13;10.65;;;19.30;99.90;;;;;;5051111;28;20413;-73
2021/07/19 06:42:15;;;;;;;19.48;11.82;;;19.40;99.90;;;;;;5050586;28;20021;-73
2021/07/19 06:44:41;;;;;;;18.73;12.30;;;19.50;99.90;;;;;;5044137;28;20060;-73
2021/07/19 06:47:07;;;;;;;15.50;11.38;;;19.50;99.90;;;;;;5049207;28;20021;-73
2021/07/19 06:49:32;;;;;;;19.85;11.27;;;19.60;99.90;;;;;;5050131;28;20040;-74
2021/07/19 06:51:58;;;;;;;17.63;11.60;;;19.60;99.90;;;;;;5049848;28;20436;-73
2021/07/19 06:54:24;;;;;;;21.10;12.15;;;19.60;99.90;;;;;;5052816;28;20508;-72
2021/07/19 06:56:49;;;;;;;17.05;11.55;;;19.60;99.90;;;;;;5049756;28;20079;-73
2021/07/19 06:59:15;;;;;;;15.35;11.13;;;19.60;99.90;;;;;;5040158;28;20524;-73
2021/07/19 07:01:41;;;;;;;18.20;12.80;;;19.80;99.90;;;;;;5047839;28;20109;-73
2021/07/19 07:04:07;;;;;;;18.08;12.73;;;19.70;99.90;;;;;;5051479;28;20492;-73
2021/07/19 07:06:33;;;;;;;17.88;12.35;;;19.90;99.90;;;;;;5050516;28;20017;-73
2021/07/19 07:08:59;;;;;;;16.48;12.35;;;19.90;99.90;;;;;;5036127;28;20033;-71
2021/07/19 07:11:27;;;;;;;16.30;11.18;;;20.00;99.90;;;;;;5030573;28;20505;-71
2021/07/19 07:13:53;;;;;;;17.45;10.95;;;20.20;99.90;;;;;;5049233;28;20071;-72
2021/07/19 07:16:19;;;;;;;16.55;11.60;;;20.30;99.90;;;;;;5055779;28;20376;-71
2021/07/19 07:18:45;;;;;;;14.00;10.88;;;20.30;99.90;;;;;;5056703;28;20013;-73
2021/07/19 07:21:11;;;;;;;15.80;10.98;;;20.40;99.90;;;;;;5058813;28;20041;-72
2021/07/19 07:23:37;;;;;;;16.83;11.25;;;20.40;99.90;;;;;;5046332;28;20041;-73
2021/07/19 07:26:03;;;;;;;17.13;11.13;;;20.50;99.90;;;;;;5056589;28;20035;-73
2021/07/19 07:28:28;;;;;;;17.85;11.07;;;20.50;99.90;;;;;;5054130;28;20505;-72
2021/07/19 07:30:54;;;;;;;19.05;13.15;;;20.60;99.90;;;;;;5045865;28;20059;-73
2021/07/19 07:33:20;;;;;;;21.23;11.75;;;20.70;99.90;;;;;;5055079;28;20032;-72
2021/07/19 07:35:46;;;;;;;18.15;12.48;;;20.70;99.90;;;;;;5049325;28;20026;-73
2021/07/19 07:38:12;;;;;;;16.98;11.45;;;20.70;99.90;;;;;;5053590;28;20024;-73
2021/07/19 07:40:38;;;;;;;16.20;12.27;;;20.70;99.90;;;;;;5053342;28;20595;-71
2021/07/19 07:43:04;;;;;;;21.45;13.43;;;20.80;99.90;;;;;;5041369;28;20488;-73
2021/07/19 07:45:30;;;;;;;17.52;11.88;;;21.00;99.90;;;;;;5047232;28;20028;-71
2021/07/19 07:47:55;;;;;;;16.10;11.02;;;21.10;99.90;;;;;;5042558;28;20040;-73
2021/07/19 07:50:21;;;;;;;18.25;12.68;;;21.10;99.90;;;;;;5043481;28;20556;-73
2021/07/19 07:52:47;;;;;;;20.08;11.63;;;21.00;99.90;;;;;;5054945;28;20044;-73
2021/07/19 07:55:13;;;;;;;17.27;11.23;;;21.00;99.90;;;;;;5051339;28;20480;-72
2021/07/19 07:57:39;;;;;;;17.13;12.10;;;21.00;99.90;;;;;;5042128;28;20509;-69
2021/07/19 08:00:14;;;;;;;19.30;12.02;;;21.10;99.90;;;;;;5050459;28;20028;-72
2021/07/19 08:02:39;;;;;;;16.83;11.93;;;21.20;99.90;;;;;;5049296;28;20040;-71
2021/07/19 08:05:06;;;;;;;16.20;10.20;;;21.00;99.90;;;;;;5052291;28;20021;-70
2021/07/19 08:07:31;;;;;;;15.65;11.50;;;21.20;99.90;;;;;;5054946;28;20032;-71
2021/07/19 08:09:59;;;;;;;17.02;11.43;;;21.40;99.90;;;;;;5045943;28;20032;-70
2021/07/19 08:12:25;;;;;;;14.07;10.48;;;21.50;99.90;;;;;;5037315;28;20032;-72
2021/07/19 08:14:52;;;;;;;13.98;10.30;;;21.50;99.90;;;;;;5049855;28;20021;-70
2021/07/19 08:17:18;;;;;;;17.67;10.82;;;21.60;99.90;;;;;;5048484;28;20036;-72
2021/07/19 08:19:44;;;;;;;15.13;10.35;;;21.50;99.90;;;;;;5046263;28;20017;-72
2021/07/19 08:22:13;;;;;;;22.23;12.30;;;21.40;99.90;;;;;;5051237;28;20124;-71
2021/07/19 08:24:40;;;;;;;16.73;11.05;;;21.40;99.90;;;;;;5051466;28;20124;-71
2021/07/19 08:27:06;;;;;;;18.55;11.32;;;21.50;99.90;;;;;;5052378;28;20017;-71
2021/07/19 08:29:31;;;;;;;14.52;10.70;;;21.20;99.90;;;;;;5048968;28;20380;-71
2021/07/19 08:31:57;;;;;;;17.65;11.63;;;21.20;99.90;;;;;;5046109;28;20029;-70
2021/07/19 08:34:22;;;;;;;17.52;12.88;;;21.30;99.90;;;;;;5058453;28;20028;-71
2021/07/19 08:36:49;;;;;;;16.00;11.35;;;21.40;99.90;;;;;;5046339;28;20111;-71
2021/07/19 08:39:15;;;;;;;18.92;11.00;;;21.40;99.90;;;;;;5051332;28;20013;-70
2021/07/19 08:41:41;;;;;;;18.48;11.77;;;21.30;99.90;;;;;;5050185;28;20464;-71
2021/07/19 08:44:10;;;;;;;13.13;10.15;;;21.50;99.90;;;;;;5049674;28;20549;-71
2021/07/19 08:46:45;;;;;;;14.70;10.40;;;21.70;99.90;;;;;;5055651;28;20017;-70
2021/07/19 08:49:11;;;;;;;16.77;11.00;;;21.80;99.90;;;;;;5051859;28;20102;-70
2021/07/19 08:51:42;;;;;;;15.90;10.90;;;22.10;99.90;;;;;;5046349;28;20465;-71
2021/07/19 08:54:12;;;;;;;13.13;9.75;;;22.20;99.90;;;;;;5054764;28;20028;-71
2021/07/19 08:56:40;;;;;;;14.48;11.10;;;22.40;99.90;;;;;;5053164;28;20024;-71
2021/07/19 08:59:10;;;;;;;12.15;9.32;;;22.30;99.90;;;;;;5054129;28;20100;-73
2021/07/19 09:01:39;;;;;;;13.98;10.93;;;22.30;99.90;;;;;;5047748;28;20033;-70
2021/07/19 09:04:05;;;;;;;13.75;9.85;;;22.40;99.90;;;;;;5051274;28;20024;-71
2021/07/19 09:06:31;;;;;;;15.68;11.27;;;22.50;99.90;;;;;;5055046;28;20404;-71
2021/07/19 09:08:57;;;;;;;17.20;12.13;;;22.50;99.90;;;;;;5058265;28;20021;-70
2021/07/19 09:11:23;;;;;;;13.65;11.23;;;22.70;99.90;;;;;;5055549;28;20409;-71
2021/07/19 09:13:56;;;;;;;16.27;10.95;;;22.60;99.90;;;;;;5053726;28;20033;-71
2021/07/19 09:16:22;;;;;;;13.60;10.48;;;22.50;99.90;;;;;;5052411;28;20434;-71
2021/07/19 09:19:04;;;;;;;13.98;10.48;;;22.70;99.90;;;;;;5054158;28;20013;-71
2021/07/19 09:21:35;;;;;;;15.60;9.80;;;22.60;99.90;;;;;;5051495;28;20060;-72
2021/07/19 09:24:22;;;;;;;15.13;11.07;;;22.70;99.90;;;;;;5049971;28;20072;-71
2021/07/19 09:26:49;;;;;;;15.25;11.10;;;22.80;99.90;;;;;;5050452;28;20040;-72
2021/07/19 09:29:19;;;;;;;13.52;10.60;;;23.10;99.90;;;;;;5050810;28;20021;-71
2021/07/19 09:32:00;;;;;;;14.82;10.93;;;23.30;99.90;;;;;;5047972;28;20381;-71
2021/07/19 09:34:32;;;;;;;12.77;9.85;;;23.30;99.90;;;;;;5052766;28;20497;-71
2021/07/19 09:36:59;;;;;;;13.82;10.07;;;23.40;99.90;;;;;;5056349;28;20032;-71
2021/07/19 09:39:30;;;;;;;15.98;11.68;;;23.50;99.90;;;;;;5049165;28;20021;-71
2021/07/19 09:42:15;;;;;;;14.40;11.55;;;23.50;99.90;;;;;;5045765;28;20028;-71
2021/07/19 09:44:49;;;;;;;18.92;10.98;;;23.40;99.90;;;;;;5049903;28;20037;-71
2021/07/19 09:47:15;;;;;;;16.63;10.88;;;23.50;99.90;;;;;;5043918;28;20024;-73
2021/07/19 09:49:41;;;;;;;15.45;11.45;;;23.60;99.90;;;;;;5050581;28;20028;-71
2021/07/19 09:52:12;;;;;;;14.73;11.32;;;23.50;99.90;;;;;;5034011;28;20478;-71
2021/07/19 09:54:43;;;;;;;16.98;11.02;;;23.50;99.90;;;;;;5052954;28;20017;-72
2021/07/19 09:57:09;;;;;;;13.02;10.10;;;23.30;99.90;;;;;;5060234;28;20024;-71
2021/07/19 09:59:50;;;;;;;14.35;11.70;;;23.40;99.90;;;;;;5051871;28;20028;-72
2021/07/19 10:02:35;;;;;;;17.13;12.27;;;23.30;99.90;;;;;;5052301;28;20369;-71
2021/07/19 10:05:02;;;;;;;15.80;11.95;;;23.20;99.90;;;;;;5050879;28;20041;-69
2021/07/19 10:07:28;;;;;;;17.35;11.07;;;23.40;99.90;;;;;;5049818;28;20021;-70
2021/07/19 10:09:58;;;;;;;14.63;11.65;;;23.90;99.90;;;;;;5048328;28;20457;-69
2021/07/19 10:12:24;;;;;;;17.45;11.55;;;23.60;99.90;;;;;;5052721;28;20128;-70
2021/07/19 10:14:50;;;;;;;18.45;11.45;;;23.50;99.90;;;;;;5060000;28;20031;-69
2021/07/19 10:17:16;;;;;;;13.77;10.60;;;23.60;99.90;;;;;;5060625;28;20020;-68
2021/07/19 10:19:42;;;;;;;16.08;11.23;;;23.50;99.90;;;;;;5047077;28;20483;-72
2021/07/19 10:22:10;;;;;;;12.85;10.90;;;23.80;99.90;;;;;;5057549;28;20495;-69
2021/07/19 10:24:40;;;;;;;13.77;11.07;;;24.00;99.90;;;;;;5061865;28;20047;-69
2021/07/19 10:27:10;;;;;;;17.40;11.18;;;24.40;99.90;;;;;;5065192;28;20051;-69
2021/07/19 10:29:36;;;;;;;13.25;10.95;;;24.60;99.90;;;;;;5047266;28;20032;-69
2021/07/19 10:32:02;;;;;;;16.13;11.20;;;24.80;99.90;;;;;;5044584;28;20021;-70
2021/07/19 10:34:27;;;;;;;15.15;9.98;;;24.90;99.90;;;;;;5053235;28;20183;-70
2021/07/19 10:37:01;;;;;;;16.52;11.05;;;24.90;99.90;;;;;;5049614;28;20020;-70
2021/07/19 10:39:30;;;;;;;16.13;11.73;;;24.80;99.90;;;;;;5045243;28;20641;-70
2021/07/19 10:42:08;;;;;;;14.32;10.70;;;24.90;99.90;;;;;;5052533;28;20420;-71
2021/07/19 10:44:36;;;;;;;14.63;10.73;;;24.70;99.90;;;;;;5053179;28;20028;-70
2021/07/19 10:47:22;;;;;;;12.00;10.13;;;24.60;99.90;;;;;;5054700;28;20683;-70
2021/07/19 10:50:15;;;;;;;12.70;10.00;;;24.40;99.90;;;;;;5049930;28;20057;-70
2021/07/19 10:52:41;;;;;;;17.73;12.05;;;24.40;99.90;;;;;;5050888;28;20041;-71
2021/07/19 10:55:09;;;;;;;18.02;11.77;;;24.30;99.90;;;;;;5051624;28;20031;-70
2021/07/19 10:57:42;;;;;;;15.13;11.05;;;24.60;99.90;;;;;;5050424;28;20021;-71
2021/07/19 11:00:12;;;;;;;16.05;11.15;;;24.60;99.90;;;;;;5050959;28;20495;-70
2021/07/19 11:02:38;;;;;;;15.88;11.45;;;24.40;99.90;;;;;;5052520;28;20068;-71
2021/07/19 11:05:05;;;;;;;15.23;11.02;;;24.30;99.90;;;;;;5051439;28;20551;-70
2021/07/19 11:07:45;;;;;;;14.00;10.55;;;24.20;99.90;;;;;;5055801;28;20017;-70
2021/07/19 11:10:19;;;;;;;17.58;12.00;;;24.20;99.90;;;;;;5046555;28;20453;-70
2021/07/19 11:12:54;;;;;;;15.20;11.52;;;24.40;99.90;;;;;;5040468;28;20025;-70
2021/07/19 11:15:31;;;;;;;15.95;11.18;;;24.70;99.90;;;;;;5042790;28;20898;-71
2021/07/19 11:17:57;;;;;;;14.45;11.02;;;24.80;99.90;;;;;;5047659;28;20139;-70
2021/07/19 11:20:22;;;;;;;15.63;10.82;;;24.80;99.90;;;;;;5060609;28;20034;-70
2021/07/19 11:23:00;;;;;;;14.32;11.77;;;24.60;99.90;;;;;;5058591;28;20473;-70
2021/07/19 11:25:36;;;;;;;16.50;10.38;;;24.60;99.90;;;;;;5049261;28;20082;-70
2021/07/19 11:28:14;;;;;;;14.43;10.85;;;24.50;99.90;;;;;;5051325;28;20029;-70
2021/07/19 11:30:40;;;;;;;15.05;11.20;;;24.50;99.90;;;;;;5056280;28;20045;-71
2021/07/19 11:33:11;;;;;;;27.73;14.32;;;24.60;99.90;;;;;;5048736;28;20053;-70
2021/07/19 11:35:40;;;;;;;16.23;11.93;;;24.80;99.90;;;;;;5051602;28;20049;-70
2021/07/19 11:38:13;;;;;;;15.65;11.77;;;24.70;99.90;;;;;;5049965;28;20521;-70
2021/07/19 11:40:41;;;;;;;13.52;11.25;;;24.70;99.90;;;;;;5054727;28;20104;-72
2021/07/19 11:43:10;;;;;;;17.10;11.07;;;24.50;99.90;;;;;;5050493;28;20029;-72
2021/07/19 11:45:42;;;;;;;20.10;12.27;;;24.50;99.90;;;;;;5047807;28;20100;-72
2021/07/19 11:48:08;;;;;;;17.17;10.93;;;24.50;99.90;;;;;;5059699;28;20354;-72
2021/07/19 11:50:34;;;;;;;14.60;11.23;;;24.50;99.90;;;;;;5052838;28;20435;-72
2021/07/19 11:53:00;;;;;;;13.45;11.02;;;24.40;99.90;;;;;;5050950;28;20052;-73
2021/07/19 11:55:26;;;;;;;16.70;11.45;;;24.60;99.90;;;;;;5043101;28;20026;-72
2021/07/19 11:58:02;;;;;;;15.98;11.48;;;24.70;99.90;;;;;;5047568;28;20052;-72
2021/07/19 12:00:34;;;;;;;15.73;11.48;;;25.00;99.90;;;;;;5047667;28;20024;-73
2021/07/19 12:03:02;;;;;;;14.10;11.02;;;25.40;99.90;;;;;;5052235;28;20469;-72
2021/07/19 12:05:29;;;;;;;13.93;11.20;;;25.70;99.90;;;;;;5052457;28;20469;-72
2021/07/19 12:08:04;;;;;;;15.00;10.73;;;25.60;99.90;;;;;;5056804;28;20025;-71
2021/07/19 12:10:33;;;;;;;14.77;11.57;;;25.20;99.90;;;;;;5057056;28;21004;-72
2021/07/19 12:13:10;;;;;;;13.48;11.25;;;25.00;99.90;;;;;;5047552;28;20500;-71
2021/07/19 12:15:39;;;;;;;15.35;11.10;;;25.10;99.90;;;;;;5041554;28;20024;-71
2021/07/19 12:18:05;;;;;;;13.82;10.85;;;25.40;99.90;;;;;;5043959;28;20031;-72
2021/07/19 12:20:34;;;;;;;15.27;11.95;;;25.70;99.90;;;;;;5051747;28;20447;-72
2021/07/19 12:23:00;;;;;;;17.17;11.35;;;25.80;99.90;;;;;;5054829;28;20077;-72
2021/07/19 12:25:25;;;;;;;22.48;12.02;;;26.00;99.90;;;;;;5055995;28;20028;-72
2021/07/19 12:27:57;;;;;;;16.02;11.07;;;25.90;99.90;;;;;;5058353;28;20021;-71
2021/07/19 12:30:24;;;;;;;15.15;11.38;;;25.70;99.90;;;;;;5056261;28;20037;-71
2021/07/19 12:32:50;;;;;;;14.27;10.77;;;25.50;99.90;;;;;;5049050;28;20044;-71
2021/07/19 12:35:22;;;;;;;15.70;11.63;;;25.30;99.90;;;;;;5045684;28;20028;-71
2021/07/19 12:37:58;;;;;;;15.00;11.50;;;25.20;99.90;;;;;;5047309;28;20465;-71